sensor_id;sensor_type;location;lat;lon;timestamp;pressure;altitude;pressure_sealevel;temperature;humidity
29839;BME280;18669;53.356;-1.464;2023-05-21T00:00:25;101538.38;;;10.36;100.00
29839;BME280;18669;53.356;-1.464;2023-05-21T00:03:10;101539.25;;;10.35;100.00
29839;BME280;18669;53.356;-1.464;2023-05-21T00:05:57;101531.38;;;10.29;100.00
29839;BME280;18669;53.356;-1.464;2023-05-21T00:08:45;101517.38;;;10.24;100.00
29839;BME280;18669;53.356;-1.464;2023-05-21T00:11:30;101525.28;;;10.24;100.00
29839;BME280;18669;53.356;-1.464;2023-05-21T00:14:14;101520.91;;;10.18;100.00
29839;BME280;18669;53.356;-1.464;2023-05-21T00:16:59;101523.53;;;10.17;100.00
29839;BME280;18669;53.356;-1.464;2023-05-21T00:19:44;101523.56;;;10.15;100.00
29839;BME280;18669;53.356;-1.464;2023-05-21T00:22:29;101527.03;;;10.19;100.00
29839;BME280;18669;53.356;-1.464;2023-05-21T00:25:14;101534.06;;;10.21;100.00
29839;BME280;18669;53.356;-1.464;2023-05-21T00:27:59;101532.31;;;10.23;100.00
29839;BME280;18669;53.356;-1.464;2023-05-21T00:30:44;101530.53;;;10.21;100.00
29839;BME280;18669;53.356;-1.464;2023-05-21T00:33:29;101530.56;;;10.16;100.00
29839;BME280;18669;53.356;-1.464;2023-05-21T00:36:14;101539.34;;;10.12;100.00
29839;BME280;18669;53.356;-1.464;2023-05-21T00:38:59;101535.00;;;10.05;100.00
29839;BME280;18669;53.356;-1.464;2023-05-21T00:41:46;101535.00;;;10.03;100.00
29839;BME280;18669;53.356;-1.464;2023-05-21T00:44:32;101535.00;;;9.98;100.00
29839;BME280;18669;53.356;-1.464;2023-05-21T00:47:17;101543.78;;;9.99;100.00
29839;BME280;18669;53.356;-1.464;2023-05-21T00:50:05;101542.88;;;10.05;100.00
29839;BME280;18669;53.356;-1.464;2023-05-21T00:52:50;101535.88;;;10.05;100.00
29839;BME280;18669;53.356;-1.464;2023-05-21T00:55:38;101539.34;;;10.12;100.00
29839;BME280;18669;53.356;-1.464;2023-05-21T00:58:23;101532.41;;;9.97;100.00
29839;BME280;18669;53.356;-1.464;2023-05-21T01:01:08;101528.91;;;9.95;100.00
29839;BME280;18669;53.356;-1.464;2023-05-21T01:03:56;101521.03;;;9.89;100.00
29839;BME280;18669;53.356;-1.464;2023-05-21T01:06:42;101515.78;;;9.79;100.00
29839;BME280;18669;53.356;-1.464;2023-05-21T01:09:27;101524.56;;;9.74;100.00
29839;BME280;18669;53.356;-1.464;2023-05-21T01:12:12;101521.06;;;9.75;100.00
29839;BME280;18669;53.356;-1.464;2023-05-21T01:14:59;101527.19;;;9.72;100.00
29839;BME280;18669;53.356;-1.464;2023-05-21T01:17:46;101509.75;;;9.51;100.00
29839;BME280;18669;53.356;-1.464;2023-05-21T01:20:32;101524.59;;;9.55;100.00
29839;BME280;18669;53.356;-1.464;2023-05-21T01:23:17;101537.75;;;9.58;100.00
29839;BME280;18669;53.356;-1.464;2023-05-21T01:26:02;101523.78;;;9.47;100.00
29839;BME280;18669;53.356;-1.464;2023-05-21T01:28:47;101534.28;;;9.50;100.00
29839;BME280;18669;53.356;-1.464;2023-05-21T01:31:55;101525.47;;;9.60;100.00
29839;BME280;18669;53.356;-1.464;2023-05-21T01:34:55;101506.25;;;9.46;100.00
29839;BME280;18669;53.356;-1.464;2023-05-21T01:37:54;101530.72;;;9.54;100.00
29839;BME280;18669;53.356;-1.464;2023-05-21T01:43:32;101524.66;;;9.43;100.00
29839;BME280;18669;53.356;-1.464;2023-05-21T01:46:20;101517.63;;;9.40;100.00
29839;BME280;18669;53.356;-1.464;2023-05-21T01:49:07;101525.53;;;9.29;100.00
29839;BME280;18669;53.356;-1.464;2023-05-21T01:51:52;101522.91;;;9.21;100.00
29839;BME280;18669;53.356;-1.464;2023-05-21T01:54:36;101517.66;;;9.20;100.00
29839;BME280;18669;53.356;-1.464;2023-05-21T01:57:21;101514.16;;;9.19;100.00
29839;BME280;18669;53.356;-1.464;2023-05-21T02:00:07;101507.16;;;9.21;100.00
29839;BME280;18669;53.356;-1.464;2023-05-21T02:02:52;101504.56;;;9.17;100.00
29839;BME280;18669;53.356;-1.464;2023-05-21T02:05:37;101504.56;;;9.14;100.00
29839;BME280;18669;53.356;-1.464;2023-05-21T02:08:21;101506.28;;;9.08;100.00
29839;BME280;18669;53.356;-1.464;2023-05-21T02:11:06;101508.03;;;9.11;100.00
29839;BME280;18669;53.356;-1.464;2023-05-21T02:13:51;101507.16;;;9.09;100.00
29839;BME280;18669;53.356;-1.464;2023-05-21T02:16:37;101488.78;;;9.07;100.00
29839;BME280;18669;53.356;-1.464;2023-05-21T02:19:22;101481.78;;;9.08;100.00
29839;BME280;18669;53.356;-1.464;2023-05-21T02:22:07;101481.78;;;9.05;100.00
29839;BME280;18669;53.356;-1.464;2023-05-21T02:24:52;101484.41;;;9.06;100.00
29839;BME280;18669;53.356;-1.464;2023-05-21T02:27:39;101494.03;;;9.07;100.00
29839;BME280;18669;53.356;-1.464;2023-05-21T02:30:25;101488.78;;;9.04;100.00
29839;BME280;18669;53.356;-1.464;2023-05-21T02:33:11;101487.03;;;9.08;100.00
29839;BME280;18669;53.356;-1.464;2023-05-21T02:35:57;101492.28;;;9.13;100.00
29839;BME280;18669;53.356;-1.464;2023-05-21T02:38:42;101479.16;;;9.09;100.00
29839;BME280;18669;53.356;-1.464;2023-05-21T02:41:27;101480.03;;;9.05;100.00
29839;BME280;18669;53.356;-1.464;2023-05-21T02:44:12;101476.53;;;9.02;100.00
29839;BME280;18669;53.356;-1.464;2023-05-21T02:46:57;101471.31;;;8.95;100.00
29839;BME280;18669;53.356;-1.464;2023-05-21T02:49:42;101486.16;;;8.98;100.00
29839;BME280;18669;53.356;-1.464;2023-05-21T02:52:27;101487.91;;;8.96;100.00
29839;BME280;18669;53.356;-1.464;2023-05-21T02:55:12;101484.44;;;8.89;100.00
29839;BME280;18669;53.356;-1.464;2023-05-21T02:57:57;101476.53;;;8.86;100.00
29839;BME280;18669;53.356;-1.464;2023-05-21T03:00:42;101481.78;;;8.83;100.00
29839;BME280;18669;53.356;-1.464;2023-05-21T03:03:26;101471.31;;;8.78;100.00
29839;BME280;18669;53.356;-1.464;2023-05-21T03:06:11;101463.44;;;8.72;100.00
29839;BME280;18669;53.356;-1.464;2023-05-21T03:08:56;101474.78;;;8.68;100.00
29839;BME280;18669;53.356;-1.464;2023-05-21T03:11:42;101480.03;;;8.68;100.00
29839;BME280;18669;53.356;-1.464;2023-05-21T03:14:27;101477.41;;;8.62;100.00
29839;BME280;18669;53.356;-1.464;2023-05-21T03:17:12;101471.28;;;8.55;100.00
29839;BME280;18669;53.356;-1.464;2023-05-21T03:19:58;101467.78;;;8.50;100.00
29839;BME280;18669;53.356;-1.464;2023-05-21T03:22:44;101477.38;;;8.49;100.00
29839;BME280;18669;53.356;-1.464;2023-05-21T03:25:29;101471.25;;;8.49;100.00
29839;BME280;18669;53.356;-1.464;2023-05-21T03:28:14;101472.09;;;8.43;100.00
29839;BME280;18669;53.356;-1.464;2023-05-21T03:30:59;101459.84;;;8.38;100.00
29839;BME280;18669;53.356;-1.464;2023-05-21T03:33:44;101458.94;;;8.32;100.00
29839;BME280;18669;53.356;-1.464;2023-05-21T03:36:29;101459.84;;;8.30;100.00
29839;BME280;18669;53.356;-1.464;2023-05-21T03:39:14;101451.97;;;8.25;100.00
29839;BME280;18669;53.356;-1.464;2023-05-21T03:41:59;101451.94;;;8.20;100.00
29839;BME280;18669;53.356;-1.464;2023-05-21T03:44:44;101465.06;;;8.19;100.00
29839;BME280;18669;53.356;-1.464;2023-05-21T03:47:29;101458.94;;;8.12;100.00
29839;BME280;18669;53.356;-1.464;2023-05-21T03:50:14;101459.78;;;8.17;100.00
29839;BME280;18669;53.356;-1.464;2023-05-21T03:52:59;101466.78;;;8.14;100.00
29839;BME280;18669;53.356;-1.464;2023-05-21T03:55:44;101455.41;;;8.16;100.00
29839;BME280;18669;53.356;-1.464;2023-05-21T03:58:29;101457.19;;;8.16;100.00
29839;BME280;18669;53.356;-1.464;2023-05-21T04:01:14;101457.16;;;8.13;100.00
29839;BME280;18669;53.356;-1.464;2023-05-21T04:03:59;101452.81;;;8.15;100.00
29839;BME280;18669;53.356;-1.464;2023-05-21T04:06:44;101463.28;;;8.09;100.00
29839;BME280;18669;53.356;-1.464;2023-05-21T04:09:29;101463.28;;;8.09;100.00
29839;BME280;18669;53.356;-1.464;2023-05-21T04:12:14;101465.91;;;8.10;100.00
29839;BME280;18669;53.356;-1.464;2023-05-21T04:14:58;101471.16;;;8.10;100.00
29839;BME280;18669;53.356;-1.464;2023-05-21T04:17:44;101468.53;;;8.10;100.00
29839;BME280;18669;53.356;-1.464;2023-05-21T04:20:29;101465.88;;;8.04;100.00
29839;BME280;18669;53.356;-1.464;2023-05-21T04:23:13;101465.91;;;8.07;100.00
29839;BME280;18669;53.356;-1.464;2023-05-21T04:25:58;101458.03;;;8.09;100.00
29839;BME280;18669;53.356;-1.464;2023-05-21T04:28:43;101464.16;;;8.06;100.00
29839;BME280;18669;53.356;-1.464;2023-05-21T04:31:30;101459.81;;;8.11;100.00
29839;BME280;18669;53.356;-1.464;2023-05-21T04:34:16;101440.56;;;8.03;100.00
29839;BME280;18669;53.356;-1.464;2023-05-21T04:37:01;101462.44;;;8.16;100.00
29839;BME280;18669;53.356;-1.464;2023-05-21T04:39:46;101439.69;;;8.10;100.00
29839;BME280;18669;53.356;-1.464;2023-05-21T04:42:31;101454.53;;;8.14;100.00
29839;BME280;18669;53.356;-1.464;2023-05-21T04:45:16;101458.91;;;8.14;100.00
29839;BME280;18669;53.356;-1.464;2023-05-21T04:48:01;101454.53;;;8.10;100.00
29839;BME280;18669;53.356;-1.464;2023-05-21T04:50:47;101452.78;;;8.04;100.00
29839;BME280;18669;53.356;-1.464;2023-05-21T04:53:31;101453.69;;;8.14;100.00
29839;BME280;18669;53.356;-1.464;2023-05-21T04:56:17;101452.78;;;8.12;100.00
29839;BME280;18669;53.356;-1.464;2023-05-21T04:59:02;101450.19;;;8.15;100.00
29839;BME280;18669;53.356;-1.464;2023-05-21T05:01:47;101424.84;;;8.09;100.00
29839;BME280;18669;53.356;-1.464;2023-05-21T05:04:32;101452.81;;;8.21;100.00
29839;BME280;18669;53.356;-1.464;2023-05-21T05:07:17;101444.97;;;8.23;100.00
29839;BME280;18669;53.356;-1.464;2023-05-21T05:10:02;101458.09;;;8.35;100.00
29839;BME280;18669;53.356;-1.464;2023-05-21T05:12:48;101454.63;;;8.45;100.00
29839;BME280;18669;53.356;-1.464;2023-05-21T05:15:32;101453.78;;;8.49;100.00
29839;BME280;18669;53.356;-1.464;2023-05-21T05:18:17;101459.03;;;8.59;100.00
29839;BME280;18669;53.356;-1.464;2023-05-21T05:21:02;101454.69;;;8.70;100.00
29839;BME280;18669;53.356;-1.464;2023-05-21T05:23:47;101454.69;;;8.76;100.00
29839;BME280;18669;53.356;-1.464;2023-05-21T05:26:32;101456.41;;;8.87;100.00
29839;BME280;18669;53.356;-1.464;2023-05-21T05:29:17;101459.91;;;8.89;100.00
29839;BME280;18669;53.356;-1.464;2023-05-21T05:32:02;101445.91;;;8.90;100.00
29839;BME280;18669;53.356;-1.464;2023-05-21T05:34:46;101440.69;;;8.88;100.00
29839;BME280;18669;53.356;-1.464;2023-05-21T05:37:31;101449.41;;;9.04;100.00
29839;BME280;18669;53.356;-1.464;2023-05-21T05:40:17;101447.66;;;9.17;100.00
29839;BME280;18669;53.356;-1.464;2023-05-21T05:43:02;101442.38;;;9.22;100.00
29839;BME280;18669;53.356;-1.464;2023-05-21T05:45:46;101447.63;;;9.36;100.00
29839;BME280;18669;53.356;-1.464;2023-05-21T05:48:31;101446.72;;;9.45;100.00
29839;BME280;18669;53.356;-1.464;2023-05-21T05:51:16;101451.94;;;9.59;100.00
29839;BME280;18669;53.356;-1.464;2023-05-21T05:54:01;101439.66;;;9.59;100.00
29839;BME280;18669;53.356;-1.464;2023-05-21T05:56:46;101446.66;;;9.68;100.00
29839;BME280;18669;53.356;-1.464;2023-05-21T05:59:31;101447.50;;;9.75;100.00
29839;BME280;18669;53.356;-1.464;2023-05-21T06:02:17;101437.00;;;9.70;100.00
29839;BME280;18669;53.356;-1.464;2023-05-21T06:05:03;101445.72;;;9.83;100.00
29839;BME280;18669;53.356;-1.464;2023-05-21T06:07:51;101449.19;;;9.87;100.00
29839;BME280;18669;53.356;-1.464;2023-05-21T06:10:37;101460.56;;;9.92;100.00
29839;BME280;18669;53.356;-1.464;2023-05-21T06:13:23;101451.75;;;9.97;100.00
29839;BME280;18669;53.356;-1.464;2023-05-21T06:16:08;101448.25;;;10.06;100.00
29839;BME280;18669;53.356;-1.464;2023-05-21T06:18:54;101456.94;;;10.19;100.00
29839;BME280;18669;53.356;-1.464;2023-05-21T06:21:39;101462.09;;;10.33;100.00
29839;BME280;18669;53.356;-1.464;2023-05-21T06:24:25;101466.44;;;10.48;100.00
29839;BME280;18669;53.356;-1.464;2023-05-21T06:27:10;101461.00;;;10.67;100.00
29839;BME280;18669;53.356;-1.464;2023-05-21T06:29:55;101466.13;;;10.87;100.00
29839;BME280;18669;53.356;-1.464;2023-05-21T06:32:41;101459.84;;;11.03;100.00
29839;BME280;18669;53.356;-1.464;2023-05-21T06:35:26;101473.75;;;11.18;100.00
29839;BME280;18669;53.356;-1.464;2023-05-21T06:38:12;101468.25;;;11.41;100.00
29839;BME280;18669;53.356;-1.464;2023-05-21T06:40:58;101465.47;;;11.57;100.00
29839;BME280;18669;53.356;-1.464;2023-05-21T06:43:43;101474.03;;;11.74;100.00
29839;BME280;18669;53.356;-1.464;2023-05-21T06:46:28;101473.81;;;11.93;100.00
29839;BME280;18669;53.356;-1.464;2023-05-21T06:49:13;101464.94;;;12.02;100.00
29839;BME280;18669;53.356;-1.464;2023-05-21T06:51:59;101473.53;;;12.18;100.00
29839;BME280;18669;53.356;-1.464;2023-05-21T06:54:44;101482.16;;;12.29;100.00
29839;BME280;18669;53.356;-1.464;2023-05-21T06:57:30;101476.72;;;12.40;100.00
29839;BME280;18669;53.356;-1.464;2023-05-21T07:00:14;101476.56;;;12.52;100.00
29839;BME280;18669;53.356;-1.464;2023-05-21T07:02:59;101479.06;;;12.60;100.00
29839;BME280;18669;53.356;-1.464;2023-05-21T07:05:45;101472.75;;;12.71;100.00
29839;BME280;18669;53.356;-1.464;2023-05-21T07:08:30;101480.41;;;12.86;100.00
29839;BME280;18669;53.356;-1.464;2023-05-21T07:11:16;101483.84;;;12.91;100.00
29839;BME280;18669;53.356;-1.464;2023-05-21T07:14:01;101460.03;;;12.93;100.00
29839;BME280;18669;53.356;-1.464;2023-05-21T07:16:46;101485.22;;;13.14;100.00
29839;BME280;18669;53.356;-1.464;2023-05-21T07:19:32;101479.03;;;13.15;100.00
29839;BME280;18669;53.356;-1.464;2023-05-21T07:22:17;101480.72;;;13.21;100.00
29839;BME280;18669;53.356;-1.464;2023-05-21T07:25:02;101470.78;;;13.34;100.00
29839;BME280;18669;53.356;-1.464;2023-05-21T07:27:46;101461.88;;;13.41;100.00
29839;BME280;18669;53.356;-1.464;2023-05-21T07:30:31;101472.19;;;13.55;97.14
29839;BME280;18669;53.356;-1.464;2023-05-21T07:33:16;101469.22;;;13.72;94.35
29839;BME280;18669;53.356;-1.464;2023-05-21T07:36:04;101466.94;;;13.96;87.11
29839;BME280;18669;53.356;-1.464;2023-05-21T07:38:49;101473.03;;;14.01;82.43
29839;BME280;18669;53.356;-1.464;2023-05-21T07:41:34;101468.50;;;14.06;78.08
29839;BME280;18669;53.356;-1.464;2023-05-21T07:44:19;101471.09;;;14.08;77.11
29839;BME280;18669;53.356;-1.464;2023-05-21T07:47:04;101457.47;;;14.26;78.21
29839;BME280;18669;53.356;-1.464;2023-05-21T07:49:49;101469.94;;;14.59;76.56
29839;BME280;18669;53.356;-1.464;2023-05-21T07:52:34;101463.69;;;14.99;78.07
29839;BME280;18669;53.356;-1.464;2023-05-21T07:55:19;101472.94;;;15.50;71.81
29839;BME280;18669;53.356;-1.464;2023-05-21T07:58:04;101473.81;;;15.82;68.00
29839;BME280;18669;53.356;-1.464;2023-05-21T08:00:49;101473.03;;;16.39;64.47
29839;BME280;18669;53.356;-1.464;2023-05-21T08:03:34;101468.38;;;17.01;63.77
29839;BME280;18669;53.356;-1.464;2023-05-21T08:06:19;101469.22;;;17.78;60.68
29839;BME280;18669;53.356;-1.464;2023-05-21T08:09:05;101461.06;;;18.30;55.63
29839;BME280;18669;53.356;-1.464;2023-05-21T08:11:50;101459.50;;;18.69;53.33
29839;BME280;18669;53.356;-1.464;2023-05-21T08:14:35;101463.13;;;19.11;51.72
29839;BME280;18669;53.356;-1.464;2023-05-21T08:17:19;101457.34;;;19.80;50.87
29839;BME280;18669;53.356;-1.464;2023-05-21T08:20:05;101451.41;;;20.50;46.60
29839;BME280;18669;53.356;-1.464;2023-05-21T08:22:50;101450.81;;;20.07;46.97
29839;BME280;18669;53.356;-1.464;2023-05-21T08:25:36;101441.88;;;20.81;45.34
29839;BME280;18669;53.356;-1.464;2023-05-21T08:28:21;101456.97;;;21.17;44.28
29839;BME280;18669;53.356;-1.464;2023-05-21T08:31:06;101443.53;;;21.86;42.26
29839;BME280;18669;53.356;-1.464;2023-05-21T08:33:52;101441.81;;;22.33;40.14
29839;BME280;18669;53.356;-1.464;2023-05-21T08:36:37;101443.44;;;22.52;40.49
29839;BME280;18669;53.356;-1.464;2023-05-21T08:39:22;101440.81;;;22.67;39.21
29839;BME280;18669;53.356;-1.464;2023-05-21T08:42:16;101440.94;;;22.01;37.12
29839;BME280;18669;53.356;-1.464;2023-05-21T08:45:07;101434.13;;;21.95;40.13
29839;BME280;18669;53.356;-1.464;2023-05-21T08:47:56;101433.13;;;22.91;36.01
29839;BME280;18669;53.356;-1.464;2023-05-21T08:50:41;101431.94;;;22.18;36.79
29839;BME280;18669;53.356;-1.464;2023-05-21T08:53:27;101439.19;;;22.32;35.63
29839;BME280;18669;53.356;-1.464;2023-05-21T08:56:12;101426.03;;;22.90;33.87
29839;BME280;18669;53.356;-1.464;2023-05-21T08:58:59;101438.19;;;23.69;33.56
29839;BME280;18669;53.356;-1.464;2023-05-21T09:01:44;101436.84;;;22.88;32.00
29839;BME280;18669;53.356;-1.464;2023-05-21T09:04:31;101429.44;;;22.77;34.68
29839;BME280;18669;53.356;-1.464;2023-05-21T09:07:15;101425.06;;;23.79;33.94
29839;BME280;18669;53.356;-1.464;2023-05-21T09:10:03;101423.72;;;23.72;32.63
29839;BME280;18669;53.356;-1.464;2023-05-21T09:12:52;101425.78;;;24.10;34.14
29839;BME280;18669;53.356;-1.464;2023-05-21T09:15:36;101424.50;;;23.31;34.38
29839;BME280;18669;53.356;-1.464;2023-05-21T09:18:21;101421.63;;;24.19;33.48
29839;BME280;18669;53.356;-1.464;2023-05-21T09:21:28;101417.78;;;24.23;33.51
29839;BME280;18669;53.356;-1.464;2023-05-21T09:24:13;101412.19;;;24.54;33.57
29839;BME280;18669;53.356;-1.464;2023-05-21T09:26:58;101422.56;;;24.73;33.36
29839;BME280;18669;53.356;-1.464;2023-05-21T09:29:42;101413.00;;;25.33;31.77
29839;BME280;18669;53.356;-1.464;2023-05-21T09:32:27;101414.63;;;25.62;30.91
29839;BME280;18669;53.356;-1.464;2023-05-21T09:35:13;101409.81;;;26.29;30.34
29839;BME280;18669;53.356;-1.464;2023-05-21T09:37:58;101416.97;;;26.77;30.27
29839;BME280;18669;53.356;-1.464;2023-05-21T09:40:43;101416.34;;;27.32;30.66
29839;BME280;18669;53.356;-1.464;2023-05-21T09:43:31;101416.97;;;27.47;29.66
29839;BME280;18669;53.356;-1.464;2023-05-21T09:46:22;101410.06;;;26.61;30.17
29839;BME280;18669;53.356;-1.464;2023-05-21T09:49:24;101404.47;;;26.76;30.80
29839;BME280;18669;53.356;-1.464;2023-05-21T09:52:10;101407.56;;;26.23;31.10
29839;BME280;18669;53.356;-1.464;2023-05-21T09:54:55;101411.19;;;23.86;33.73
29839;BME280;18669;53.356;-1.464;2023-05-21T09:57:44;101396.16;;;24.25;33.50
29839;BME280;18669;53.356;-1.464;2023-05-21T10:00:30;101395.91;;;25.60;32.52
29839;BME280;18669;53.356;-1.464;2023-05-21T10:03:16;101388.88;;;25.58;31.84
29839;BME280;18669;53.356;-1.464;2023-05-21T10:06:00;101393.09;;;26.84;31.01
29839;BME280;18669;53.356;-1.464;2023-05-21T10:08:47;101392.66;;;27.24;29.08
29839;BME280;18669;53.356;-1.464;2023-05-21T10:11:32;101384.28;;;27.38;28.33
29839;BME280;18669;53.356;-1.464;2023-05-21T10:14:20;101392.38;;;26.93;28.05
29839;BME280;18669;53.356;-1.464;2023-05-21T10:17:07;101381.97;;;27.57;27.50
29839;BME280;18669;53.356;-1.464;2023-05-21T10:19:54;101380.47;;;28.31;27.41
29839;BME280;18669;53.356;-1.464;2023-05-21T10:22:40;101382.78;;;28.89;25.78
29839;BME280;18669;53.356;-1.464;2023-05-21T10:25:26;101377.66;;;28.96;24.90
29839;BME280;18669;53.356;-1.464;2023-05-21T10:28:15;101378.59;;;29.06;25.40
29839;BME280;18669;53.356;-1.464;2023-05-21T10:31:01;101381.09;;;28.98;25.57
29839;BME280;18669;53.356;-1.464;2023-05-21T10:33:47;101387.72;;;28.84;24.08
29839;BME280;18669;53.356;-1.464;2023-05-21T10:36:32;101382.41;;;28.82;24.09
29839;BME280;18669;53.356;-1.464;2023-05-21T10:39:17;101383.25;;;27.96;24.70
29839;BME280;18669;53.356;-1.464;2023-05-21T11:00:19;101369.34;;;27.57;27.27
29839;BME280;18669;53.356;-1.464;2023-05-21T11:03:05;101366.94;;;28.31;28.05
29839;BME280;18669;53.356;-1.464;2023-05-21T11:05:54;101361.16;;;28.78;25.84
29839;BME280;18669;53.356;-1.464;2023-05-21T11:08:46;101362.72;;;29.01;24.92
29839;BME280;18669;53.356;-1.464;2023-05-21T11:11:42;101351.53;;;28.85;23.71
29839;BME280;18669;53.356;-1.464;2023-05-21T11:14:34;101362.91;;;29.10;23.42
29839;BME280;18669;53.356;-1.464;2023-05-21T11:17:39;101362.69;;;26.93;26.04
29839;BME280;18669;53.356;-1.464;2023-05-21T11:20:32;101364.50;;;28.49;25.25
29839;BME280;18669;53.356;-1.464;2023-05-21T11:23:19;101348.34;;;28.80;22.84
29839;BME280;18669;53.356;-1.464;2023-05-21T11:26:05;101355.28;;;28.94;25.44
29839;BME280;18669;53.356;-1.464;2023-05-21T11:29:07;101351.06;;;30.61;23.55
29839;BME280;18669;53.356;-1.464;2023-05-21T11:32:01;101346.75;;;29.90;23.15
29839;BME280;18669;53.356;-1.464;2023-05-21T11:34:47;101340.16;;;29.63;24.58
29839;BME280;18669;53.356;-1.464;2023-05-21T11:37:32;101331.63;;;28.96;23.72
29839;BME280;18669;53.356;-1.464;2023-05-21T11:40:21;101334.25;;;29.07;24.13
29839;BME280;18669;53.356;-1.464;2023-05-21T11:43:07;101331.94;;;29.02;23.67
29839;BME280;18669;53.356;-1.464;2023-05-21T11:45:52;101330.66;;;29.38;22.13
29839;BME280;18669;53.356;-1.464;2023-05-21T11:48:37;101339.25;;;29.43;23.78
29839;BME280;18669;53.356;-1.464;2023-05-21T11:51:23;101338.06;;;30.55;23.81
29839;BME280;18669;53.356;-1.464;2023-05-21T11:54:09;101349.56;;;31.34;22.05
29839;BME280;18669;53.356;-1.464;2023-05-21T11:56:53;101340.91;;;31.95;21.04
29839;BME280;18669;53.356;-1.464;2023-05-21T11:59:39;101347.19;;;30.44;22.26
29839;BME280;18669;53.356;-1.464;2023-05-21T12:02:29;101339.06;;;30.64;22.25
29839;BME280;18669;53.356;-1.464;2023-05-21T12:05:13;101341.25;;;32.00;22.26
29839;BME280;18669;53.356;-1.464;2023-05-21T12:07:58;101343.53;;;32.41;21.42
29839;BME280;18669;53.356;-1.464;2023-05-21T12:10:43;101339.78;;;32.42;20.78
29839;BME280;18669;53.356;-1.464;2023-05-21T12:13:28;101340.78;;;32.59;21.67
29839;BME280;18669;53.356;-1.464;2023-05-21T12:16:13;101339.72;;;31.79;20.63
29839;BME280;18669;53.356;-1.464;2023-05-21T12:18:58;101335.59;;;32.29;21.01
29839;BME280;18669;53.356;-1.464;2023-05-21T12:21:44;101335.16;;;31.70;21.31
29839;BME280;18669;53.356;-1.464;2023-05-21T12:24:30;101327.38;;;31.01;21.90
29839;BME280;18669;53.356;-1.464;2023-05-21T12:27:15;101323.97;;;32.27;21.18
29839;BME280;18669;53.356;-1.464;2023-05-21T12:30:00;101327.84;;;30.87;21.73
29839;BME280;18669;53.356;-1.464;2023-05-21T12:32:45;101325.47;;;30.54;22.63
29839;BME280;18669;53.356;-1.464;2023-05-21T12:35:30;101324.19;;;30.58;22.02
29839;BME280;18669;53.356;-1.464;2023-05-21T12:38:15;101317.28;;;31.67;23.28
29839;BME280;18669;53.356;-1.464;2023-05-21T12:41:05;101330.72;;;31.69;21.26
29839;BME280;18669;53.356;-1.464;2023-05-21T12:43:50;101309.34;;;31.56;21.79
29839;BME280;18669;53.356;-1.464;2023-05-21T12:46:35;101324.06;;;30.98;22.97
29839;BME280;18669;53.356;-1.464;2023-05-21T12:49:33;101317.41;;;32.30;22.50
29839;BME280;18669;53.356;-1.464;2023-05-21T12:52:18;101328.16;;;33.19;21.52
29839;BME280;18669;53.356;-1.464;2023-05-21T12:55:04;101323.28;;;32.70;20.98
29839;BME280;18669;53.356;-1.464;2023-05-21T12:57:49;101310.84;;;31.68;21.42
29839;BME280;18669;53.356;-1.464;2023-05-21T13:00:35;101315.38;;;30.17;22.78
29839;BME280;18669;53.356;-1.464;2023-05-21T13:03:22;101313.19;;;31.07;22.62
29839;BME280;18669;53.356;-1.464;2023-05-21T13:06:07;101317.59;;;31.08;23.03
29839;BME280;18669;53.356;-1.464;2023-05-21T13:08:52;101311.81;;;31.95;22.22
29839;BME280;18669;53.356;-1.464;2023-05-21T13:11:38;101307.91;;;32.61;21.21
29839;BME280;18669;53.356;-1.464;2023-05-21T13:14:23;101284.69;;;33.77;21.15
29839;BME280;18669;53.356;-1.464;2023-05-21T13:17:09;101293.59;;;34.45;20.69
29839;BME280;18669;53.356;-1.464;2023-05-21T13:20:11;101294.00;;;34.90;20.11
29839;BME280;18669;53.356;-1.464;2023-05-21T13:22:56;101297.59;;;34.83;20.40
29839;BME280;18669;53.356;-1.464;2023-05-21T13:25:40;101305.41;;;34.94;20.40
29839;BME280;18669;53.356;-1.464;2023-05-21T13:28:25;101298.00;;;34.63;19.58
29839;BME280;18669;53.356;-1.464;2023-05-21T13:31:10;101299.13;;;35.33;19.46
29839;BME280;18669;53.356;-1.464;2023-05-21T13:33:55;101294.47;;;35.10;19.64
29839;BME280;18669;53.356;-1.464;2023-05-21T13:36:40;101298.91;;;34.47;19.94
29839;BME280;18669;53.356;-1.464;2023-05-21T13:39:24;101281.88;;;33.36;20.82
29839;BME280;18669;53.356;-1.464;2023-05-21T13:42:11;101280.38;;;33.41;20.79
29839;BME280;18669;53.356;-1.464;2023-05-21T13:44:56;101287.44;;;33.26;21.67
29839;BME280;18669;53.356;-1.464;2023-05-21T13:47:42;101279.72;;;33.47;20.98
29839;BME280;18669;53.356;-1.464;2023-05-21T13:50:27;101276.38;;;34.12;20.30
29839;BME280;18669;53.356;-1.464;2023-05-21T13:53:12;101281.19;;;33.33;21.06
29839;BME280;18669;53.356;-1.464;2023-05-21T13:59:44;101272.91;;;34.43;21.24
29839;BME280;18669;53.356;-1.464;2023-05-21T14:02:31;101278.75;;;33.90;21.34
29839;BME280;18669;53.356;-1.464;2023-05-21T14:05:19;101273.47;;;35.66;20.24
29839;BME280;18669;53.356;-1.464;2023-05-21T14:08:04;101284.72;;;35.00;22.00
29839;BME280;18669;53.356;-1.464;2023-05-21T14:10:48;101285.72;;;34.59;21.83
29839;BME280;18669;53.356;-1.464;2023-05-21T14:13:33;101270.19;;;36.32;20.35
29839;BME280;18669;53.356;-1.464;2023-05-21T14:16:19;101275.84;;;38.01;19.34
29839;BME280;18669;53.356;-1.464;2023-05-21T14:19:06;101269.44;;;37.50;19.38
29839;BME280;18669;53.356;-1.464;2023-05-21T14:21:51;101282.47;;;35.43;20.96
29839;BME280;18669;53.356;-1.464;2023-05-21T14:24:36;101281.91;;;32.40;24.32
29839;BME280;18669;53.356;-1.464;2023-05-21T14:27:21;101262.00;;;33.09;24.58
29839;BME280;18669;53.356;-1.464;2023-05-21T14:30:06;101260.81;;;34.12;22.16
29839;BME280;18669;53.356;-1.464;2023-05-21T14:32:51;101273.44;;;33.80;23.23
29839;BME280;18669;53.356;-1.464;2023-05-21T14:35:36;101273.09;;;35.06;22.52
29839;BME280;18669;53.356;-1.464;2023-05-21T14:38:20;101256.16;;;36.12;21.68